sensor_id;sensor_type;location;lat;lon;timestamp;pressure;altitude;pressure_sealevel;temperature;humidity
14295;BME280;7231;59.370;18.016;2022-09-20T00:01:19;100816.78;;;10.34;100.00
14295;BME280;7231;59.370;18.016;2022-09-20T00:03:49;100832.69;;;10.42;100.00
14295;BME280;7231;59.370;18.016;2022-09-20T00:06:19;100830.91;;;10.41;100.00
14295;BME280;7231;59.370;18.016;2022-09-20T00:08:48;100823.66;;;10.31;100.00
14295;BME280;7231;59.370;18.016;2022-09-20T00:11:17;100844.94;;;10.43;100.00
14295;BME280;7231;59.370;18.016;2022-09-20T00:13:48;100837.97;;;10.44;100.00
14295;BME280;7231;59.370;18.016;2022-09-20T00:16:20;100844.16;;;10.46;100.00
14295;BME280;7231;59.370;18.016;2022-09-20T00:18:48;100844.19;;;10.47;100.00
14295;BME280;7231;59.370;18.016;2022-09-20T00:21:18;100821.22;;;10.37;100.00
14295;BME280;7231;59.370;18.016;2022-09-20T00:23:46;100808.69;;;10.27;100.00
14295;BME280;7231;59.370;18.016;2022-09-20T00:26:14;100845.97;;;10.48;100.00
14295;BME280;7231;59.370;18.016;2022-09-20T00:28:43;100843.38;;;10.50;100.00
14295;BME280;7231;59.370;18.016;2022-09-20T00:31:13;100839.88;;;10.49;100.00
14295;BME280;7231;59.370;18.016;2022-09-20T00:33:43;100848.69;;;10.51;100.00
14295;BME280;7231;59.370;18.016;2022-09-20T00:36:28;100844.19;;;10.47;100.00
14295;BME280;7231;59.370;18.016;2022-09-20T00:38:58;100850.41;;;10.51;100.00
14295;BME280;7231;59.370;18.016;2022-09-20T00:41:27;100840.81;;;10.51;100.00
14295;BME280;7231;59.370;18.016;2022-09-20T00:43:55;100832.63;;;10.39;100.00
14295;BME280;7231;59.370;18.016;2022-09-20T00:46:28;100840.81;;;10.51;100.00
14295;BME280;7231;59.370;18.016;2022-09-20T00:49:05;100823.94;;;10.40;100.00
14295;BME280;7231;59.370;18.016;2022-09-20T00:51:36;100824.78;;;10.40;100.00
14295;BME280;7231;59.370;18.016;2022-09-20T00:54:06;100821.13;;;10.34;100.00
14295;BME280;7231;59.370;18.016;2022-09-20T00:56:39;100852.09;;;10.49;100.00
14295;BME280;7231;59.370;18.016;2022-09-20T00:59:13;100858.00;;;10.41;100.00
14295;BME280;7231;59.370;18.016;2022-09-20T01:01:43;100865.16;;;10.47;100.00
14295;BME280;7231;59.370;18.016;2022-09-20T01:04:15;100860.75;;;10.46;100.00
14295;BME280;7231;59.370;18.016;2022-09-20T01:06:45;100848.28;;;10.36;100.00
14295;BME280;7231;59.370;18.016;2022-09-20T01:09:13;100868.59;;;10.45;100.00
14295;BME280;7231;59.370;18.016;2022-09-20T01:11:42;100870.28;;;10.43;100.00
14295;BME280;7231;59.370;18.016;2022-09-20T01:14:12;100872.00;;;10.42;100.00
14295;BME280;7231;59.370;18.016;2022-09-20T01:16:40;100856.97;;;10.35;100.00
14295;BME280;7231;59.370;18.016;2022-09-20T01:19:16;100873.78;;;10.43;100.00
14295;BME280;7231;59.370;18.016;2022-09-20T01:21:47;100831.22;;;10.20;100.00
14295;BME280;7231;59.370;18.016;2022-09-20T01:24:20;100869.47;;;10.45;100.00
14295;BME280;7231;59.370;18.016;2022-09-20T01:27:01;100877.34;;;10.45;100.00
14295;BME280;7231;59.370;18.016;2022-09-20T01:29:42;100874.75;;;10.47;100.00
14295;BME280;7231;59.370;18.016;2022-09-20T01:32:18;100871.09;;;10.40;100.00
14295;BME280;7231;59.370;18.016;2022-09-20T01:34:51;100884.44;;;10.49;100.00
14295;BME280;7231;59.370;18.016;2022-09-20T01:37:24;100882.66;;;10.48;100.00
14295;BME280;7231;59.370;18.016;2022-09-20T01:40:01;100865.88;;;10.40;100.00
14295;BME280;7231;59.370;18.016;2022-09-20T01:42:33;100881.81;;;10.49;100.00
14295;BME280;7231;59.370;18.016;2022-09-20T01:45:09;100873.06;;;10.49;100.00
14295;BME280;7231;59.370;18.016;2022-09-20T01:47:47;100864.97;;;10.39;100.00
14295;BME280;7231;59.370;18.016;2022-09-20T01:50:27;100874.63;;;10.42;100.00
14295;BME280;7231;59.370;18.016;2022-09-20T01:53:21;100883.50;;;10.47;100.00
14295;BME280;7231;59.370;18.016;2022-09-20T01:56:26;100897.50;;;10.48;100.00
14295;BME280;7231;59.370;18.016;2022-09-20T02:02:06;100899.25;;;10.47;100.00
14295;BME280;7231;59.370;18.016;2022-09-20T02:08:07;100905.31;;;10.46;100.00
14295;BME280;7231;59.370;18.016;2022-09-20T02:11:08;100907.06;;;10.46;100.00
14295;BME280;7231;59.370;18.016;2022-09-20T02:16:47;100900.03;;;10.45;100.00
14295;BME280;7231;59.370;18.016;2022-09-20T02:19:31;100892.75;;;10.33;100.00
14295;BME280;7231;59.370;18.016;2022-09-20T02:22:09;100895.34;;;10.33;100.00
14295;BME280;7231;59.370;18.016;2022-09-20T02:24:45;100904.34;;;10.43;100.00
14295;BME280;7231;59.370;18.016;2022-09-20T02:27:23;100913.06;;;10.41;100.00
14295;BME280;7231;59.370;18.016;2022-09-20T02:30:03;100906.78;;;10.35;100.00
14295;BME280;7231;59.370;18.016;2022-09-20T02:32:54;100924.28;;;10.36;100.00
14295;BME280;7231;59.370;18.016;2022-09-20T02:35:41;100930.28;;;10.32;100.00
14295;BME280;7231;59.370;18.016;2022-09-20T02:38:24;100927.50;;;10.27;100.00
14295;BME280;7231;59.370;18.016;2022-09-20T02:41:13;100937.81;;;10.21;100.00
14295;BME280;7231;59.370;18.016;2022-09-20T02:43:55;100930.56;;;10.14;100.00
14295;BME280;7231;59.370;18.016;2022-09-20T02:46:30;100936.75;;;10.16;100.00
14295;BME280;7231;59.370;18.016;2022-09-20T02:49:05;100935.75;;;10.13;100.00
14295;BME280;7231;59.370;18.016;2022-09-20T02:51:39;100843.88;;;9.51;100.00
14295;BME280;7231;59.370;18.016;2022-09-20T02:54:15;100948.81;;;10.11;100.00
14295;BME280;7231;59.370;18.016;2022-09-20T02:56:51;100948.72;;;10.08;100.00
14295;BME280;7231;59.370;18.016;2022-09-20T02:59:28;100950.44;;;10.07;100.00
14295;BME280;7231;59.370;18.016;2022-09-20T03:02:06;100955.59;;;10.04;100.00
14295;BME280;7231;59.370;18.016;2022-09-20T03:04:47;100958.22;;;10.04;100.00
14295;BME280;7231;59.370;18.016;2022-09-20T03:07:31;100959.94;;;10.04;100.00
14295;BME280;7231;59.370;18.016;2022-09-20T03:10:10;100944.03;;;9.98;100.00
14295;BME280;7231;59.370;18.016;2022-09-20T03:12:51;100957.41;;;10.07;100.00
14295;BME280;7231;59.370;18.016;2022-09-20T03:15:28;100962.69;;;10.08;100.00
14295;BME280;7231;59.370;18.016;2022-09-20T03:18:06;100963.53;;;10.07;100.00
14295;BME280;7231;59.370;18.016;2022-09-20T03:20:42;100946.53;;;9.95;100.00
14295;BME280;7231;59.370;18.016;2022-09-20T03:23:29;100970.47;;;10.05;100.00
14295;BME280;7231;59.370;18.016;2022-09-20T03:26:09;100978.31;;;10.05;100.00
14295;BME280;7231;59.370;18.016;2022-09-20T03:28:55;100972.25;;;10.06;100.00
14295;BME280;7231;59.370;18.016;2022-09-20T03:31:35;100942.75;;;9.85;100.00
14295;BME280;7231;59.370;18.016;2022-09-20T03:34:15;100973.03;;;10.04;100.00
14295;BME280;7231;59.370;18.016;2022-09-20T03:37:00;100988.09;;;10.11;100.00
14295;BME280;7231;59.370;18.016;2022-09-20T03:40:09;100991.63;;;10.12;100.00
14295;BME280;7231;59.370;18.016;2022-09-20T03:42:45;100988.91;;;10.08;100.00
14295;BME280;7231;59.370;18.016;2022-09-20T03:45:34;100986.28;;;10.08;100.00
14295;BME280;7231;59.370;18.016;2022-09-20T03:51:12;100985.16;;;10.00;100.00
14295;BME280;7231;59.370;18.016;2022-09-20T03:54:09;101001.09;;;10.08;100.00
14295;BME280;7231;59.370;18.016;2022-09-20T03:57:25;101005.34;;;10.04;100.00
14295;BME280;7231;59.370;18.016;2022-09-20T04:00:20;101015.88;;;10.06;100.00
14295;BME280;7231;59.370;18.016;2022-09-20T04:06:12;101027.41;;;10.11;100.00
14295;BME280;7231;59.370;18.016;2022-09-20T04:09:00;101025.53;;;10.07;100.00
14295;BME280;7231;59.370;18.016;2022-09-20T04:11:36;100924.88;;;9.47;100.00
14295;BME280;7231;59.370;18.016;2022-09-20T04:14:15;101037.88;;;10.11;100.00
14295;BME280;7231;59.370;18.016;2022-09-20T04:16:51;101031.75;;;10.11;100.00
14295;BME280;7231;59.370;18.016;2022-09-20T04:19:24;101034.44;;;10.12;100.00
14295;BME280;7231;59.370;18.016;2022-09-20T04:22:00;101044.03;;;10.12;100.00
14295;BME280;7231;59.370;18.016;2022-09-20T04:24:34;101003.84;;;9.86;100.00
14295;BME280;7231;59.370;18.016;2022-09-20T04:27:11;101048.38;;;10.11;100.00
14295;BME280;7231;59.370;18.016;2022-09-20T04:29:44;101038.38;;;9.99;100.00
14295;BME280;7231;59.370;18.016;2022-09-20T04:32:22;101056.19;;;10.09;100.00
14295;BME280;7231;59.370;18.016;2022-09-20T04:34:59;101032.13;;;9.96;100.00
14295;BME280;7231;59.370;18.016;2022-09-20T04:37:47;101063.16;;;10.09;100.00
14295;BME280;7231;59.370;18.016;2022-09-20T04:40:28;101059.63;;;10.08;100.00
14295;BME280;7231;59.370;18.016;2022-09-20T04:43:33;101071.06;;;10.11;100.00
14295;BME280;7231;59.370;18.016;2022-09-20T04:49:23;101078.09;;;10.12;100.00
14295;BME280;7231;59.370;18.016;2022-09-20T04:52:37;101081.66;;;10.14;100.00
14295;BME280;7231;59.370;18.016;2022-09-20T04:55:38;101083.16;;;10.07;100.00
14295;BME280;7231;59.370;18.016;2022-09-20T04:58:34;101085.16;;;10.14;100.00
14295;BME280;7231;59.370;18.016;2022-09-20T05:01:35;101084.06;;;10.07;100.00
14295;BME280;7231;59.370;18.016;2022-09-20T05:13:38;101102.56;;;10.12;100.00
14295;BME280;7231;59.370;18.016;2022-09-20T05:16:19;101112.34;;;10.18;100.00
14295;BME280;7231;59.370;18.016;2022-09-20T05:19:12;101123.81;;;10.20;100.00
14295;BME280;7231;59.370;18.016;2022-09-20T05:21:48;101128.22;;;10.21;100.00
14295;BME280;7231;59.370;18.016;2022-09-20T05:24:28;101112.25;;;10.15;100.00
14295;BME280;7231;59.370;18.016;2022-09-20T05:27:15;101137.91;;;10.23;100.00
14295;BME280;7231;59.370;18.016;2022-09-20T05:29:50;101091.66;;;10.00;100.00
14295;BME280;7231;59.370;18.016;2022-09-20T05:32:29;101142.41;;;10.27;100.00
14295;BME280;7231;59.370;18.016;2022-09-20T05:35:03;101145.09;;;10.29;100.00
14295;BME280;7231;59.370;18.016;2022-09-20T05:37:42;101134.44;;;10.24;100.00
14295;BME280;7231;59.370;18.016;2022-09-20T05:40:19;101143.50;;;10.34;100.00
14295;BME280;7231;59.370;18.016;2022-09-20T05:42:53;101129.25;;;10.26;100.00
14295;BME280;7231;59.370;18.016;2022-09-20T05:45:48;101157.66;;;10.39;100.00
14295;BME280;7231;59.370;18.016;2022-09-20T05:48:26;101156.84;;;10.41;100.00
14295;BME280;7231;59.370;18.016;2022-09-20T05:50:58;101167.38;;;10.43;100.00
14295;BME280;7231;59.370;18.016;2022-09-20T05:53:54;101144.41;;;10.34;100.00
14295;BME280;7231;59.370;18.016;2022-09-20T05:56:33;101173.63;;;10.47;100.00
14295;BME280;7231;59.370;18.016;2022-09-20T05:59:18;101177.13;;;10.47;100.00
14295;BME280;7231;59.370;18.016;2022-09-20T06:01:57;101176.28;;;10.48;100.00
14295;BME280;7231;59.370;18.016;2022-09-20T06:04:37;101158.50;;;10.38;100.00
14295;BME280;7231;59.370;18.016;2022-09-20T06:07:19;101189.56;;;10.53;100.00
14295;BME280;7231;59.370;18.016;2022-09-20T06:10:11;101183.53;;;10.55;100.00
14295;BME280;7231;59.370;18.016;2022-09-20T06:12:50;101186.19;;;10.57;100.00
14295;BME280;7231;59.370;18.016;2022-09-20T06:15:26;101188.78;;;10.55;100.00
14295;BME280;7231;59.370;18.016;2022-09-20T06:18:00;101190.59;;;10.58;100.00
14295;BME280;7231;59.370;18.016;2022-09-20T06:20:37;101199.41;;;10.60;100.00
14295;BME280;7231;59.370;18.016;2022-09-20T06:23:09;101199.41;;;10.60;100.00
14295;BME280;7231;59.370;18.016;2022-09-20T06:25:41;101198.63;;;10.62;100.00
14295;BME280;7231;59.370;18.016;2022-09-20T06:28:15;101211.06;;;10.68;100.00
14295;BME280;7231;59.370;18.016;2022-09-20T06:30:46;101190.03;;;10.66;100.00
14295;BME280;7231;59.370;18.016;2022-09-20T06:33:16;101217.50;;;10.78;100.00
14295;BME280;7231;59.370;18.016;2022-09-20T06:35:51;101208.94;;;10.83;100.00
14295;BME280;7231;59.370;18.016;2022-09-20T06:38:40;101217.19;;;10.95;100.00
14295;BME280;7231;59.370;18.016;2022-09-20T06:41:31;101209.53;;;11.01;100.00
14295;BME280;7231;59.370;18.016;2022-09-20T06:44:02;101188.38;;;10.97;100.00
14295;BME280;7231;59.370;18.016;2022-09-20T06:46:33;101220.41;;;11.14;100.00
14295;BME280;7231;59.370;18.016;2022-09-20T06:49:02;101239.31;;;11.30;99.96
14295;BME280;7231;59.370;18.016;2022-09-20T06:51:36;101218.28;;;11.29;99.84
14295;BME280;7231;59.370;18.016;2022-09-20T06:54:06;101239.09;;;11.51;99.97
14295;BME280;7231;59.370;18.016;2022-09-20T06:56:37;101241.09;;;11.60;99.43
14295;BME280;7231;59.370;18.016;2022-09-20T06:59:05;101250.81;;;11.62;98.42
14295;BME280;7231;59.370;18.016;2022-09-20T07:01:34;101250.81;;;11.62;98.41
14295;BME280;7231;59.370;18.016;2022-09-20T07:04:02;101225.78;;;11.45;97.90
14295;BME280;7231;59.370;18.016;2022-09-20T07:06:32;101168.97;;;11.19;97.98
14295;BME280;7231;59.370;18.016;2022-09-20T07:09:01;101259.41;;;11.85;99.33
14295;BME280;7231;59.370;18.016;2022-09-20T07:11:29;101245.22;;;12.09;99.93
14295;BME280;7231;59.370;18.016;2022-09-20T07:14:00;101258.31;;;12.39;98.44
14295;BME280;7231;59.370;18.016;2022-09-20T07:16:28;101267.59;;;12.57;97.63
14295;BME280;7231;59.370;18.016;2022-09-20T07:18:56;101268.22;;;12.82;97.05
14295;BME280;7231;59.370;18.016;2022-09-20T07:21:26;101266.59;;;12.87;94.59
14295;BME280;7231;59.370;18.016;2022-09-20T07:23:53;101274.53;;;12.88;93.35
14295;BME280;7231;59.370;18.016;2022-09-20T07:26:26;101270.16;;;12.89;91.96
14295;BME280;7231;59.370;18.016;2022-09-20T07:28:55;101279.66;;;12.82;91.37
14295;BME280;7231;59.370;18.016;2022-09-20T07:31:24;101283.97;;;12.80;91.75
14295;BME280;7231;59.370;18.016;2022-09-20T07:33:53;101195.44;;;12.48;92.48
14295;BME280;7231;59.370;18.016;2022-09-20T07:36:21;101289.44;;;13.22;92.22
14295;BME280;7231;59.370;18.016;2022-09-20T07:38:51;101280.78;;;13.28;90.36
14295;BME280;7231;59.370;18.016;2022-09-20T07:41:19;101246.81;;;13.04;89.09
14295;BME280;7231;59.370;18.016;2022-09-20T07:43:49;101274.16;;;13.09;88.79
14295;BME280;7231;59.370;18.016;2022-09-20T07:46:17;101279.44;;;13.09;88.00
14295;BME280;7231;59.370;18.016;2022-09-20T07:48:48;101284.47;;;12.98;87.19
14295;BME280;7231;59.370;18.016;2022-09-20T07:51:15;101295.53;;;12.85;86.83
14295;BME280;7231;59.370;18.016;2022-09-20T07:53:43;101279.25;;;12.67;86.60
14295;BME280;7231;59.370;18.016;2022-09-20T07:56:13;101295.06;;;12.68;86.31
14295;BME280;7231;59.370;18.016;2022-09-20T07:58:42;101297.53;;;12.62;86.54
14295;BME280;7231;59.370;18.016;2022-09-20T08:01:18;101287.41;;;12.45;86.15
14295;BME280;7231;59.370;18.016;2022-09-20T08:03:48;101305.69;;;12.40;86.51
14295;BME280;7231;59.370;18.016;2022-09-20T08:06:16;101224.59;;;11.92;86.38
14295;BME280;7231;59.370;18.016;2022-09-20T08:08:48;101285.25;;;12.30;86.24
14295;BME280;7231;59.370;18.016;2022-09-20T08:11:20;101231.72;;;11.96;85.66
14295;BME280;7231;59.370;18.016;2022-09-20T08:13:54;101310.16;;;12.43;86.36
14295;BME280;7231;59.370;18.016;2022-09-20T08:16:41;101306.84;;;12.50;86.35
14295;BME280;7231;59.370;18.016;2022-09-20T08:19:14;101302.72;;;12.59;85.80
14295;BME280;7231;59.370;18.016;2022-09-20T08:21:42;101221.81;;;12.18;85.52
14295;BME280;7231;59.370;18.016;2022-09-20T08:24:11;101315.44;;;12.76;85.31
14295;BME280;7231;59.370;18.016;2022-09-20T08:26:39;101312.09;;;12.81;85.12
14295;BME280;7231;59.370;18.016;2022-09-20T08:29:07;101313.38;;;12.97;85.36
14295;BME280;7231;59.370;18.016;2022-09-20T08:31:37;101305.91;;;13.50;87.74
14295;BME280;7231;59.370;18.016;2022-09-20T08:34:10;101294.28;;;14.20;85.72
14295;BME280;7231;59.370;18.016;2022-09-20T08:36:42;101307.19;;;14.48;82.83
14295;BME280;7231;59.370;18.016;2022-09-20T08:39:12;101304.84;;;14.64;81.20
14295;BME280;7231;59.370;18.016;2022-09-20T08:42:12;101315.94;;;14.92;79.33
14295;BME280;7231;59.370;18.016;2022-09-20T08:44:46;101302.09;;;15.06;78.01
14295;BME280;7231;59.370;18.016;2022-09-20T08:47:28;101314.06;;;15.37;77.19
14295;BME280;7231;59.370;18.016;2022-09-20T08:49:59;101295.75;;;15.49;76.79
14295;BME280;7231;59.370;18.016;2022-09-20T08:52:45;101326.78;;;16.24;76.74
14295;BME280;7231;59.370;18.016;2022-09-20T08:55:15;101321.41;;;16.94;74.85
14295;BME280;7231;59.370;18.016;2022-09-20T08:57:47;101328.84;;;17.33;71.46
14295;BME280;7231;59.370;18.016;2022-09-20T09:00:17;101328.81;;;17.31;68.87
14295;BME280;7231;59.370;18.016;2022-09-20T09:02:46;101334.00;;;17.17;68.07
14295;BME280;7231;59.370;18.016;2022-09-20T09:05:30;101334.88;;;17.16;65.95
14295;BME280;7231;59.370;18.016;2022-09-20T09:08:02;101338.47;;;17.25;67.14
14295;BME280;7231;59.370;18.016;2022-09-20T09:10:34;101328.00;;;17.40;66.44
14295;BME280;7231;59.370;18.016;2022-09-20T09:13:13;101338.66;;;17.46;64.82
14295;BME280;7231;59.370;18.016;2022-09-20T09:15:50;101208.84;;;16.50;64.61
14295;BME280;7231;59.370;18.016;2022-09-20T09:18:19;101316.38;;;17.23;65.26
14295;BME280;7231;59.370;18.016;2022-09-20T09:20:49;101322.13;;;17.76;65.43
14295;BME280;7231;59.370;18.016;2022-09-20T09:23:22;101348.03;;;18.33;63.41
14295;BME280;7231;59.370;18.016;2022-09-20T09:25:53;101316.16;;;18.27;62.66
14295;BME280;7231;59.370;18.016;2022-09-20T09:28:23;101331.19;;;18.14;60.77
14295;BME280;7231;59.370;18.016;2022-09-20T09:30:51;101352.19;;;17.79;60.05
14295;BME280;7231;59.370;18.016;2022-09-20T09:33:24;101365.28;;;17.61;60.75
14295;BME280;7231;59.370;18.016;2022-09-20T09:35:57;101323.47;;;17.25;60.53
14295;BME280;7231;59.370;18.016;2022-09-20T09:38:27;101345.31;;;17.00;60.06
14295;BME280;7231;59.370;18.016;2022-09-20T09:40:58;101369.69;;;16.67;60.51
14295;BME280;7231;59.370;18.016;2022-09-20T09:43:27;101372.78;;;16.34;61.29
14295;BME280;7231;59.370;18.016;2022-09-20T09:46:15;101305.66;;;15.64;61.74
14295;BME280;7231;59.370;18.016;2022-09-20T09:48:44;101325.72;;;15.51;62.82
14295;BME280;7231;59.370;18.016;2022-09-20T09:51:18;101388.50;;;15.64;63.04
14295;BME280;7231;59.370;18.016;2022-09-20T09:53:49;101388.16;;;15.43;63.58
14295;BME280;7231;59.370;18.016;2022-09-20T09:56:34;101356.03;;;15.18;64.52
14295;BME280;7231;59.370;18.016;2022-09-20T09:59:26;101388.69;;;15.75;65.38
14295;BME280;7231;59.370;18.016;2022-09-20T10:02:02;101378.03;;;16.32;65.62
14295;BME280;7231;59.370;18.016;2022-09-20T10:04:43;101385.97;;;17.03;64.75
14295;BME280;7231;59.370;18.016;2022-09-20T10:07:18;101376.03;;;17.73;62.60
14295;BME280;7231;59.370;18.016;2022-09-20T10:10:02;101383.53;;;18.50;60.32
14295;BME280;7231;59.370;18.016;2022-09-20T10:12:47;101333.97;;;18.56;58.17
14295;BME280;7231;59.370;18.016;2022-09-20T10:15:27;101388.91;;;18.61;56.81
14295;BME280;7231;59.370;18.016;2022-09-20T10:18:22;101391.28;;;18.06;56.71
14295;BME280;7231;59.370;18.016;2022-09-20T10:21:13;101391.19;;;17.93;58.42
14295;BME280;7231;59.370;18.016;2022-09-20T10:23:57;101391.47;;;18.46;57.77
14295;BME280;7231;59.370;18.016;2022-09-20T10:27:21;101391.66;;;18.92;57.10
14295;BME280;7231;59.370;18.016;2022-09-20T10:30:01;101387.31;;;19.30;57.24
14295;BME280;7231;59.370;18.016;2022-09-20T10:32:41;101346.56;;;19.60;55.60
14295;BME280;7231;59.370;18.016;2022-09-20T10:35:21;101395.28;;;20.00;54.09
14295;BME280;7231;59.370;18.016;2022-09-20T10:38:14;101413.06;;;19.60;52.42
14295;BME280;7231;59.370;18.016;2022-09-20T10:40:58;101423.53;;;18.79;53.44
14295;BME280;7231;59.370;18.016;2022-09-20T10:44:07;101433.72;;;18.03;55.32
14295;BME280;7231;59.370;18.016;2022-09-20T10:46:47;101359.38;;;16.93;56.39
14295;BME280;7231;59.370;18.016;2022-09-20T10:49:24;101298.84;;;15.79;57.40
14295;BME280;7231;59.370;18.016;2022-09-20T10:52:03;101434.09;;;16.05;58.86
14295;BME280;7231;59.370;18.016;2022-09-20T10:54:41;101443.44;;;15.82;60.01
14295;BME280;7231;59.370;18.016;2022-09-20T10:57:44;101447.50;;;15.60;60.54
14295;BME280;7231;59.370;18.016;2022-09-20T11:00:20;101419.66;;;15.32;61.02
14295;BME280;7231;59.370;18.016;2022-09-20T11:03:09;101434.03;;;15.48;62.36
14295;BME280;7231;59.370;18.016;2022-09-20T11:05:45;101450.69;;;15.94;62.63
14295;BME280;7231;59.370;18.016;2022-09-20T11:08:22;101357.47;;;16.11;62.63
14295;BME280;7231;59.370;18.016;2022-09-20T11:10:54;101450.63;;;17.20;61.68
14295;BME280;7231;59.370;18.016;2022-09-20T11:13:30;101449.31;;;17.64;60.39
14295;BME280;7231;59.370;18.016;2022-09-20T11:16:04;101425.50;;;17.68;59.21
14295;BME280;7231;59.370;18.016;2022-09-20T11:18:38;101448.81;;;18.09;58.79
14295;BME280;7231;59.370;18.016;2022-09-20T11:21:12;101439.41;;;18.70;58.75
14295;BME280;7231;59.370;18.016;2022-09-20T11:23:50;101452.91;;;19.37;55.93
14295;BME280;7231;59.370;18.016;2022-09-20T11:26:25;101451.13;;;19.29;54.03
14295;BME280;7231;59.370;18.016;2022-09-20T11:29:02;101449.03;;;18.48;54.15
14295;BME280;7231;59.370;18.016;2022-09-20T11:31:35;101471.72;;;17.96;55.29
14295;BME280;7231;59.370;18.016;2022-09-20T11:34:09;101456.13;;;17.37;56.17
14295;BME280;7231;59.370;18.016;2022-09-20T11:36:46;101482.16;;;16.96;56.23
14295;BME280;7231;59.370;18.016;2022-09-20T11:39:21;101463.66;;;16.36;56.88
14295;BME280;7231;59.370;18.016;2022-09-20T11:41:53;101414.06;;;15.65;57.35
14295;BME280;7231;59.370;18.016;2022-09-20T11:44:23;101486.63;;;15.81;57.96
14295;BME280;7231;59.370;18.016;2022-09-20T11:46:55;101472.88;;;15.52;58.90
14295;BME280;7231;59.370;18.016;2022-09-20T11:49:29;101497.53;;;15.51;59.62
14295;BME280;7231;59.370;18.016;2022-09-20T11:52:27;101453.69;;;15.14;60.42
14295;BME280;7231;59.370;18.016;2022-09-20T11:55:35;101491.84;;;15.30;60.95
14295;BME280;7231;59.370;18.016;2022-09-20T11:58:11;101505.81;;;15.22;60.75
14295;BME280;7231;59.370;18.016;2022-09-20T12:00:45;101509.50;;;14.88;60.97
14295;BME280;7231;59.370;18.016;2022-09-20T12:03:24;101521.34;;;14.67;61.56
14295;BME280;7231;59.370;18.016;2022-09-20T12:05:57;101522.56;;;14.43;62.02
14295;BME280;7231;59.370;18.016;2022-09-20T12:08:29;101531.84;;;14.27;62.46
14295;BME280;7231;59.370;18.016;2022-09-20T12:10:59;101525.31;;;14.12;62.85
14295;BME280;7231;59.370;18.016;2022-09-20T12:13:31;101528.72;;;14.08;63.30
14295;BME280;7231;59.370;18.016;2022-09-20T12:16:06;101543.03;;;14.17;63.88
14295;BME280;7231;59.370;18.016;2022-09-20T12:18:46;101541.53;;;14.28;64.03
14295;BME280;7231;59.370;18.016;2022-09-20T12:21:16;101539.16;;;14.39;64.02
14295;BME280;7231;59.370;18.016;2022-09-20T12:24:16;101538.41;;;14.43;64.17
14295;BME280;7231;59.370;18.016;2022-09-20T12:26:50;101496.50;;;14.21;63.97
14295;BME280;7231;59.370;18.016;2022-09-20T12:30:02;101545.53;;;14.47;64.63
14295;BME280;7231;59.370;18.016;2022-09-20T12:32:43;101550.25;;;14.60;64.59
14295;BME280;7231;59.370;18.016;2022-09-20T12:38:26;101559.41;;;14.76;63.85
14295;BME280;7231;59.370;18.016;2022-09-20T12:40:58;101549.78;;;14.78;63.48
14295;BME280;7231;59.370;18.016;2022-09-20T12:43:27;101530.00;;;14.59;63.42
14295;BME280;7231;59.370;18.016;2022-09-20T12:45:57;101525.19;;;14.42;63.45
14295;BME280;7231;59.370;18.016;2022-09-20T12:48:36;101564.03;;;14.49;63.39
14295;BME280;7231;59.370;18.016;2022-09-20T12:51:16;101518.22;;;14.09;63.75
14295;BME280;7231;59.370;18.016;2022-09-20T12:54:05;101568.84;;;14.30;63.94
14295;BME280;7231;59.370;18.016;2022-09-20T12:56:35;101557.84;;;14.12;64.04
14295;BME280;7231;59.370;18.016;2022-09-20T12:59:06;101542.44;;;13.94;64.32
14295;BME280;7231;59.370;18.016;2022-09-20T13:01:46;101584.91;;;14.05;64.47
14295;BME280;7231;59.370;18.016;2022-09-20T13:07:39;101574.16;;;13.64;64.67
14295;BME280;7231;59.370;18.016;2022-09-20T13:10:21;101588.91;;;13.58;64.98
14295;BME280;7231;59.370;18.016;2022-09-20T13:12:53;101571.69;;;13.39;65.04
14295;BME280;7231;59.370;18.016;2022-09-20T13:15:23;101559.06;;;13.27;65.07
14295;BME280;7231;59.370;18.016;2022-09-20T13:17:52;101560.00;;;13.29;65.51
14295;BME280;7231;59.370;18.016;2022-09-20T13:20:24;101582.25;;;13.39;65.73
14295;BME280;7231;59.370;18.016;2022-09-20T13:22:57;101592.44;;;13.58;65.46
14295;BME280;7231;59.370;18.016;2022-09-20T13:25:26;101599.00;;;13.73;65.66
14295;BME280;7231;59.370;18.016;2022-09-20T13:28:03;101596.59;;;14.49;65.79
14295;BME280;7231;59.370;18.016;2022-09-20T13:30:32;101604.56;;;15.29;63.69
14295;BME280;7231;59.370;18.016;2022-09-20T13:33:20;101601.19;;;15.36;61.73
14295;BME280;7231;59.370;18.016;2022-09-20T13:35:50;101602.47;;;15.13;61.87
14295;BME280;7231;59.370;18.016;2022-09-20T13:38:24;101581.41;;;14.77;61.08
14295;BME280;7231;59.370;18.016;2022-09-20T13:41:00;101609.47;;;14.72;61.30
14295;BME280;7231;59.370;18.016;2022-09-20T13:43:31;101603.22;;;14.68;61.31
14295;BME280;7231;59.370;18.016;2022-09-20T13:46:06;101612.00;;;14.67;60.63
14295;BME280;7231;59.370;18.016;2022-09-20T13:48:35;101622.44;;;14.63;60.73
14295;BME280;7231;59.370;18.016;2022-09-20T13:51:13;101622.75;;;14.76;61.03
14295;BME280;7231;59.370;18.016;2022-09-20T13:53:44;101620.53;;;14.94;61.05
14295;BME280;7231;59.370;18.016;2022-09-20T13:56:17;101614.63;;;15.47;60.65
14295;BME280;7231;59.370;18.016;2022-09-20T13:58:47;101619.66;;;16.25;58.85
14295;BME280;7231;59.370;18.016;2022-09-20T14:01:22;101618.75;;;16.76;57.46
14295;BME280;7231;59.370;18.016;2022-09-20T14:03:51;101621.00;;;17.10;56.73
14295;BME280;7231;59.370;18.016;2022-09-20T14:06:22;101596.56;;;17.33;55.80
14295;BME280;7231;59.370;18.016;2022-09-20T14:08:56;101631.25;;;17.51;54.93
14295;BME280;7231;59.370;18.016;2022-09-20T14:11:27;101635.22;;;17.15;54.89